Time;durP1;ratioP1;P1;durP2;ratioP2;P2;SDS_P1;SDS_P2;PMS_P1;PMS_P2;Temp;Humidity;BMP_temperature;BMP_pressure;BME280_temperature;BME280_humidity;BME280_pressure;Samples;Min_cycle;Max_cycle;Signal;HPM_P1;HPM_P2
2022/05/21 00:02:14;;;;;;;0.10;0.10;;;;;;;23.68;49.49;101645.19;5129539;28;20397;-31
2022/05/21 00:04:42;;;;;;;0.00;0.00;;;;;;;23.68;49.67;101649.94;5132046;28;20047;-31
2022/05/21 00:07:10;;;;;;;0.00;0.00;;;;;;;23.68;49.40;101653.53;5130460;27;20138;-31
2022/05/21 00:09:36;;;;;;;0.10;0.10;;;;;;;23.67;49.43;101640.78;5130791;28;20071;-34
2022/05/21 00:12:03;;;;;;;0.10;0.10;;;;;;;23.67;49.44;101642.72;5129948;27;20138;-33
2022/05/21 00:14:29;;;;;;;0.00;0.00;;;;;;;23.67;49.32;101643.56;5131455;28;20063;-32
2022/05/21 00:16:55;;;;;;;0.20;0.20;;;;;;;23.68;49.34;101644.38;5130507;28;20065;-31
2022/05/21 00:19:20;;;;;;;0.10;0.10;;;;;;;23.67;49.37;101642.72;5129440;28;20381;-31
2022/05/21 00:21:46;;;;;;;0.10;0.10;;;;;;;23.66;48.91;101643.81;5130397;28;20042;-34
2022/05/21 00:24:12;;;;;;;0.10;0.10;;;;;;;23.67;49.40;101637.16;5130104;27;20045;-31
2022/05/21 00:26:37;;;;;;;0.10;0.10;;;;;;;23.66;49.47;101641.91;5130835;28;20046;-31
2022/05/21 00:29:03;;;;;;;0.05;0.05;;;;;;;23.67;49.25;101634.38;5131360;27;20476;-31
2022/05/21 00:31:29;;;;;;;0.10;0.10;;;;;;;23.66;49.33;101635.47;5132341;27;20075;-31
2022/05/21 00:33:54;;;;;;;0.10;0.10;;;;;;;23.66;49.36;101638.25;5131116;27;20047;-32
2022/05/21 00:36:20;;;;;;;0.20;0.20;;;;;;;23.65;49.27;101633.84;5131658;28;20481;-32
2022/05/21 00:38:46;;;;;;;0.10;0.10;;;;;;;23.65;49.19;101631.88;5129163;27;20043;-32
2022/05/21 00:41:14;;;;;;;0.10;0.10;;;;;;;23.66;49.44;101641.03;5128259;27;20042;-32
2022/05/21 00:43:59;;;;;;;0.15;0.15;;;;;;;23.65;49.26;101639.41;5130371;28;20078;-32
2022/05/21 00:46:27;;;;;;;0.10;0.10;;;;;;;23.65;49.38;101633.84;5131011;28;20116;-32
2022/05/21 00:49:15;;;;;;;0.10;0.10;;;;;;;23.65;49.28;101636.63;5128198;27;20528;-33
2022/05/21 00:51:49;;;;;;;;;;;;;;;23.64;49.19;101634.94;5129601;28;20129;-32
2022/05/21 00:54:16;;;;;;;0.10;0.10;;;;;;;23.63;49.39;101639.66;5129633;27;20011;-33
2022/05/21 00:56:47;;;;;;;0.00;0.00;;;;;;;23.62;49.23;101638.00;5131217;27;20134;-31
2022/05/21 01:02:02;;;;;;;0.10;0.10;;;;;;;23.63;49.39;101638.84;5137131;27;20061;-32
2022/05/21 01:04:27;;;;;;;0.10;0.10;;;;;;;23.61;49.24;101639.13;5130183;28;20035;-31
2022/05/21 01:06:54;;;;;;;0.10;0.10;;;;;;;23.62;49.34;101629.69;5131372;27;20043;-31
2022/05/21 01:09:19;;;;;;;0.10;0.10;;;;;;;23.62;49.32;101632.47;5129708;27;20171;-32
2022/05/21 01:11:45;;;;;;;0.10;0.10;;;;;;;23.62;49.30;101635.25;5130480;27;20043;-32
2022/05/21 01:14:11;;;;;;;0.20;0.20;;;;;;;23.62;49.16;101628.81;5130852;27;20493;-31
2022/05/21 01:16:37;;;;;;;0.32;0.32;;;;;;;23.63;49.25;101630.50;5129782;27;20140;-33
2022/05/21 01:19:07;;;;;;;0.13;0.13;;;;;;;23.62;49.26;101637.16;5128994;27;20043;-32
2022/05/21 01:21:33;;;;;;;0.10;0.10;;;;;;;23.61;49.29;101636.34;5130969;27;20434;-31
2022/05/21 01:23:59;;;;;;;0.10;0.10;;;;;;;23.62;49.28;101631.59;5127525;27;20075;-32
2022/05/21 01:26:26;;;;;;;0.10;0.10;;;;;;;23.61;49.27;101632.72;5129411;28;20047;-33
2022/05/21 01:28:52;;;;;;;0.08;0.08;;;;;;;23.61;49.17;101633.56;5122303;27;20490;-31
2022/05/21 01:31:18;;;;;;;0.10;0.10;;;;;;;23.60;49.23;101634.69;5130729;28;20053;-31
2022/05/21 01:33:44;;;;;;;0.20;0.20;;;;;;;23.61;49.27;101630.78;5129627;28;20043;-31
2022/05/21 01:36:12;;;;;;;0.10;0.10;;;;;;;23.60;49.27;101625.53;5131142;28;20079;-33
2022/05/21 01:38:38;;;;;;;0.10;0.10;;;;;;;23.60;49.18;101629.13;5129669;28;20085;-32
2022/05/21 01:41:07;;;;;;;0.10;0.10;;;;;;;23.59;49.17;101635.81;5131226;27;20035;-31
2022/05/21 01:46:19;;;;;;;0.30;0.30;;;;;;;23.58;49.32;101627.78;5127673;28;20122;-31
2022/05/21 01:48:44;;;;;;;0.10;0.10;;;;;;;23.59;49.25;101633.03;5128969;27;20047;-31
2022/05/21 01:51:10;;;;;;;0.10;0.10;;;;;;;23.59;49.23;101630.25;5130200;27;20058;-31
2022/05/21 01:53:37;;;;;;;0.10;0.10;;;;;;;23.59;49.23;101630.25;5128626;28;20050;-31
2022/05/21 01:56:03;;;;;;;0.10;0.10;;;;;;;23.57;49.01;101632.47;5129088;28;20071;-31
2022/05/21 01:58:29;;;;;;;0.10;0.10;;;;;;;23.57;49.21;101635.25;5128609;27;20135;-31
2022/05/21 02:00:55;;;;;;;0.10;0.10;;;;;;;23.57;49.00;101626.91;5130119;28;20039;-31
2022/05/21 02:03:22;;;;;;;0.10;0.10;;;;;;;23.59;49.12;101615.53;5129233;27;20051;-32
2022/05/21 02:05:48;;;;;;;0.10;0.10;;;;;;;23.57;49.24;101623.31;5129297;28;20866;-31
2022/05/21 02:08:15;;;;;;;0.10;0.10;;;;;;;23.57;49.06;101628.88;5129169;28;20039;-32
2022/05/21 02:10:42;;;;;;;0.10;0.10;;;;;;;23.57;49.09;101631.66;5130426;27;20089;-32
2022/05/21 02:13:12;;;;;;;0.10;0.10;;;;;;;23.57;49.14;101628.88;5129117;28;20550;-31
2022/05/21 02:15:38;;;;;;;0.10;0.10;;;;;;;23.56;49.16;101625.28;5127846;28;20079;-31
2022/05/21 02:18:03;;;;;;;0.20;0.20;;;;;;;23.56;49.11;101622.50;5126644;28;20102;-33
2022/05/21 02:20:29;;;;;;;0.10;0.10;;;;;;;23.57;49.10;101624.16;5128940;28;20042;-31
2022/05/21 02:22:55;;;;;;;0.10;0.10;;;;;;;23.57;49.18;101626.09;5126531;27;20039;-32
2022/05/21 02:25:20;;;;;;;0.10;0.10;;;;;;;23.56;49.18;101618.88;5127748;28;20103;-30
2022/05/21 02:27:46;;;;;;;0.10;0.10;;;;;;;23.56;48.87;101621.66;5127548;28;20046;-31
2022/05/21 02:30:13;;;;;;;0.10;0.10;;;;;;;23.56;49.06;101616.09;5130515;27;20047;-32
2022/05/21 02:32:39;;;;;;;0.10;0.10;;;;;;;23.56;49.02;101627.22;5128828;28;20481;-32
2022/05/21 02:35:05;;;;;;;0.10;0.10;;;;;;;23.54;49.21;101622.78;5127793;28;20058;-33
2022/05/21 02:40:16;;;;;;;0.10;0.10;;;;;;;23.54;49.12;101627.53;5127287;28;20553;-33
2022/05/21 02:42:43;;;;;;;0.10;0.10;;;;;;;23.54;49.16;101620.00;5128993;28;20047;-30
2022/05/21 02:45:11;;;;;;;0.10;0.10;;;;;;;23.53;49.04;101621.16;5128715;27;20099;-31
2022/05/21 02:47:37;;;;;;;0.10;0.10;;;;;;;23.53;49.17;101623.94;5124249;28;20134;-31
2022/05/21 02:50:03;;;;;;;0.10;0.10;;;;;;;23.53;49.04;101623.94;5126723;28;20050;-33
2022/05/21 02:52:29;;;;;;;0.10;0.10;;;;;;;23.53;49.12;101626.72;5127626;28;20502;-33
2022/05/21 02:54:56;;;;;;;0.10;0.10;;;;;;;23.53;49.03;101628.63;5129790;28;20047;-32
2022/05/21 02:57:22;;;;;;;0.10;0.10;;;;;;;23.53;49.22;101629.50;5127871;27;20308;-32
2022/05/21 02:59:50;;;;;;;0.10;0.10;;;;;;;23.54;49.23;101635.88;5127184;28;20039;-31
2022/05/21 03:02:17;;;;;;;;;;;;;;;23.52;49.09;101633.38;5125538;27;20125;-32
2022/05/21 03:04:43;;;;;;;0.10;0.10;;;;;;;23.52;49.02;101632.53;5127138;28;19919;-31
2022/05/21 03:07:09;;;;;;;0.00;0.00;;;;;;;23.51;49.15;101633.66;5128835;27;20323;-35
2022/05/21 03:12:20;;;;;;;0.10;0.10;;;;;;;23.51;49.14;101639.22;5126217;28;20055;-33
2022/05/21 03:14:46;;;;;;;0.00;0.00;;;;;;;23.52;49.09;101643.66;5129158;28;20084;-32
2022/05/21 03:17:12;;;;;;;0.10;0.10;;;;;;;23.51;49.48;101648.41;5126842;28;20042;-31
2022/05/21 03:19:38;;;;;;;0.10;0.10;;;;;;;23.51;49.18;101648.41;5124386;28;20051;-31
2022/05/21 03:22:04;;;;;;;0.10;0.10;;;;;;;23.51;49.08;101647.56;5127247;27;20477;-30
2022/05/21 03:24:30;;;;;;;0.10;0.10;;;;;;;23.50;49.10;101646.75;5129653;27;20117;-31
2022/05/21 03:26:56;;;;;;;0.20;0.20;;;;;;;23.50;48.98;101652.31;5127517;28;20047;-34
2022/05/21 03:29:22;;;;;;;0.22;0.22;;;;;;;23.50;49.03;101657.88;5128302;27;20496;-32
2022/05/21 03:31:47;;;;;;;0.10;0.10;;;;;;;23.50;49.23;101651.47;5127844;28;20130;-32
2022/05/21 03:34:13;;;;;;;0.10;0.10;;;;;;;23.50;49.00;101657.03;5127772;27;20047;-32
2022/05/21 03:36:39;;;;;;;0.43;0.40;;;;;;;23.49;49.19;101664.56;5127495;28;20080;-34
2022/05/21 03:39:05;;;;;;;0.10;0.10;;;;;;;23.50;49.07;101659.81;5126329;28;20043;-31
2022/05/21 03:41:30;;;;;;;0.10;0.10;;;;;;;23.50;48.92;101657.88;5128791;27;20035;-31
2022/05/21 03:43:57;;;;;;;0.10;0.10;;;;;;;23.49;49.14;101661.78;5127467;28;20489;-32
2022/05/21 03:46:23;;;;;;;0.10;0.10;;;;;;;23.48;49.03;101656.50;5128372;28;20059;-32
2022/05/21 03:48:49;;;;;;;0.10;0.10;;;;;;;23.49;49.03;101653.44;5122752;28;20065;-32
2022/05/21 03:51:15;;;;;;;0.10;0.10;;;;;;;23.48;48.85;101657.31;5127068;27;20497;-32
2022/05/21 03:53:42;;;;;;;0.10;0.10;;;;;;;23.48;49.03;101654.53;5126122;28;20042;-31
2022/05/21 03:56:08;;;;;;;0.20;0.20;;;;;;;23.48;49.03;101650.94;5128328;27;20087;-31
2022/05/21 03:58:34;;;;;;;0.10;0.10;;;;;;;23.48;48.91;101656.50;5125840;27;20051;-31
2022/05/21 04:01:00;;;;;;;0.10;0.10;;;;;;;23.47;49.18;101657.63;5127471;28;20047;-34
2022/05/21 04:03:26;;;;;;;0.10;0.10;;;;;;;23.48;49.01;101650.94;5126353;27;20062;-31
2022/05/21 04:05:56;;;;;;;0.10;0.10;;;;;;;23.47;48.91;101649.28;5127821;27;20082;-31
2022/05/21 04:08:22;;;;;;;0.00;0.00;;;;;;;23.47;49.03;101652.06;5126023;28;20138;-32
2022/05/21 04:10:48;;;;;;;0.00;0.00;;;;;;;23.47;49.03;101650.09;5127847;27;20078;-32
2022/05/21 04:13:14;;;;;;;0.10;0.10;;;;;;;23.47;49.03;101660.41;5125103;27;20047;-31
2022/05/21 04:15:40;;;;;;;0.10;0.10;;;;;;;23.47;49.20;101652.88;5129286;27;20093;-33
2022/05/21 04:18:06;;;;;;;0.20;0.20;;;;;;;23.46;48.98;101656.78;5124003;27;20055;-33
2022/05/21 04:20:32;;;;;;;0.10;0.10;;;;;;;23.47;49.04;101657.63;5129284;27;20134;-32
2022/05/21 04:22:58;;;;;;;0.10;0.10;;;;;;;23.47;49.07;101668.75;5129185;27;20089;-32
2022/05/21 04:25:24;;;;;;;0.10;0.10;;;;;;;23.46;48.98;101665.13;5128497;28;20047;-33
2022/05/21 04:27:50;;;;;;;0.10;0.10;;;;;;;23.45;49.04;101666.25;5127793;27;20081;-33
2022/05/21 04:30:19;;;;;;;0.10;0.10;;;;;;;23.46;49.09;101678.22;5128037;28;20051;-31
2022/05/21 04:32:45;;;;;;;0.10;0.10;;;;;;;23.45;48.95;101682.94;5128149;27;20078;-32
2022/05/21 04:35:11;;;;;;;0.10;0.10;;;;;;;23.44;49.00;101675.69;5125135;28;20092;-31
2022/05/21 04:37:38;;;;;;;0.10;0.10;;;;;;;23.45;49.03;101676.56;5126164;28;20062;-31
2022/05/21 04:40:07;;;;;;;0.20;0.20;;;;;;;23.45;49.15;101674.59;5126440;28;20082;-32
2022/05/21 04:42:32;;;;;;;0.10;0.10;;;;;;;23.44;49.04;101678.47;5123479;28;20549;-31
2022/05/21 04:44:59;;;;;;;0.10;0.10;;;;;;;23.44;48.89;101678.47;5125641;28;20202;-33
2022/05/21 04:47:24;;;;;;;0.10;0.10;;;;;;;23.44;49.13;101684.03;5129248;27;20583;-31
2022/05/21 04:49:50;;;;;;;0.10;0.10;;;;;;;23.44;49.02;101686.00;5125003;27;20039;-32
2022/05/21 04:52:16;;;;;;;0.10;0.10;;;;;;;23.44;48.99;101686.81;5132217;27;20057;-33
2022/05/21 04:54:41;;;;;;;0.10;0.10;;;;;;;23.44;49.12;101686.00;5132566;27;20049;-31
2022/05/21 04:57:07;;;;;;;0.63;0.40;;;;;;;23.43;48.91;101696.28;5130576;28;20466;-31
2022/05/21 04:59:33;;;;;;;0.10;0.10;;;;;;;23.43;48.85;101701.84;5130210;27;20039;-32
2022/05/21 05:01:58;;;;;;;0.10;0.10;;;;;;;23.44;49.11;101699.88;5128476;27;20070;-32
2022/05/21 05:04:24;;;;;;;0.10;0.10;;;;;;;23.44;49.14;101705.44;5128939;28;20449;-33
2022/05/21 05:06:50;;;;;;;0.10;0.10;;;;;;;23.43;48.92;101701.84;5130105;27;20048;-31
2022/05/21 05:09:19;;;;;;;0.10;0.10;;;;;;;23.43;48.84;101704.63;5129024;27;20049;-31
2022/05/21 05:11:47;;;;;;;0.08;0.08;;;;;;;23.43;48.72;101709.34;5129959;28;20134;-33
2022/05/21 05:14:13;;;;;;;0.08;0.08;;;;;;;23.43;48.88;101703.81;5127848;28;20096;-31
2022/05/21 05:16:38;;;;;;;0.10;0.10;;;;;;;23.42;49.06;101708.53;5132597;27;20121;-32
2022/05/21 05:19:04;;;;;;;0.10;0.10;;;;;;;23.42;49.05;101711.31;5128370;27;20050;-32
2022/05/21 05:21:30;;;;;;;0.10;0.10;;;;;;;23.42;48.98;101716.88;5130865;27;20044;-32
2022/05/21 05:23:56;;;;;;;0.10;0.10;;;;;;;23.43;48.88;101714.91;5129593;27;20059;-31
2022/05/21 05:26:22;;;;;;;0.10;0.10;;;;;;;23.42;48.97;101711.31;5132369;28;20047;-32
2022/05/21 05:28:48;;;;;;;0.00;0.00;;;;;;;23.42;48.99;101702.97;5129839;27;20146;-31
2022/05/21 05:31:14;;;;;;;0.10;0.10;;;;;;;23.41;48.92;101712.44;5129936;27;20133;-31
2022/05/21 05:33:40;;;;;;;0.10;0.10;;;;;;;23.42;48.85;101699.38;5130283;27;20051;-32
2022/05/21 05:36:07;;;;;;;0.10;0.10;;;;;;;23.41;48.94;101709.66;5130361;28;20060;-31
2022/05/21 05:38:32;;;;;;;0.30;0.15;;;;;;;23.41;48.84;101708.84;5125917;27;20117;-31
2022/05/21 05:40:58;;;;;;;0.10;0.10;;;;;;;23.41;48.82;101708.84;5128863;28;20051;-31
2022/05/21 05:43:24;;;;;;;0.10;0.10;;;;;;;23.41;49.04;101706.88;5130564;27;20039;-31
2022/05/21 05:45:53;;;;;;;0.00;0.00;;;;;;;23.39;48.90;101709.09;5130129;28;20042;-32
2022/05/21 05:48:20;;;;;;;0.20;0.20;;;;;;;23.40;48.90;101716.34;5125996;27;20047;-32
2022/05/21 05:50:53;;;;;;;0.10;0.10;;;;;;;23.40;48.91;101718.28;5131428;27;20049;-31
2022/05/21 05:53:18;;;;;;;0.00;0.00;;;;;;;23.40;48.93;101723.81;5129649;27;20042;-31
2022/05/21 05:55:44;;;;;;;0.10;0.10;;;;;;;23.40;49.07;101712.72;5129403;28;20062;-31
2022/05/21 06:00:55;;;;;;;0.10;0.10;;;;;;;23.40;48.91;101732.16;5128581;28;20147;-31
2022/05/21 06:03:21;;;;;;;0.00;0.00;;;;;;;23.39;48.92;101731.34;5129903;27;20051;-31
2022/05/21 06:05:49;;;;;;;0.00;0.00;;;;;;;23.40;49.00;101727.47;5130495;28;20043;-31
2022/05/21 06:08:15;;;;;;;0.00;0.00;;;;;;;23.39;48.96;101724.97;5129001;27;20074;-32
2022/05/21 06:10:43;;;;;;;0.10;0.10;;;;;;;23.39;49.02;101727.72;5128423;28;20497;-31
2022/05/21 06:13:09;;;;;;;0.00;0.00;;;;;;;23.39;48.88;101722.19;5127473;28;20039;-32
2022/05/21 06:15:35;;;;;;;0.25;0.25;;;;;;;23.38;48.93;101721.34;5130551;27;20058;-31
2022/05/21 06:18:10;;;;;;;0.00;0.00;;;;;;;23.39;48.85;101730.50;5127549;28;20401;-33
2022/05/21 06:20:36;;;;;;;0.10;0.10;;;;;;;23.38;48.88;101723.31;5131147;27;20078;-31
2022/05/21 06:23:02;;;;;;;0.10;0.10;;;;;;;23.38;48.90;101731.66;5129463;27;20733;-33
2022/05/21 06:25:30;;;;;;;0.10;0.10;;;;;;;23.38;48.98;101729.69;5130004;27;20108;-29
2022/05/21 06:27:56;;;;;;;0.10;0.10;;;;;;;23.38;48.85;101726.91;5128265;27;20047;-32
2022/05/21 06:30:24;;;;;;;0.10;0.10;;;;;;;23.37;49.05;101732.78;5128666;27;20247;-32
2022/05/21 06:32:50;;;;;;;0.10;0.10;;;;;;;23.37;48.93;101733.59;5128395;27;20067;-34
2022/05/21 06:35:17;;;;;;;0.10;0.10;;;;;;;23.39;48.87;101734.13;5128567;27;20040;-31
2022/05/21 06:37:43;;;;;;;0.10;0.10;;;;;;;23.38;48.87;101734.41;5125822;28;20131;-33
2022/05/21 06:40:10;;;;;;;0.10;0.10;;;;;;;23.38;48.87;101734.41;5127948;27;20043;-34
2022/05/21 06:42:36;;;;;;;0.10;0.10;;;;;;;23.37;49.00;101733.59;5130143;28;20129;-33
2022/05/21 06:45:03;;;;;;;0.10;0.10;;;;;;;23.37;48.93;101736.38;5127241;27;20051;-33
2022/05/21 06:47:28;;;;;;;0.10;0.10;;;;;;;23.36;48.88;101734.72;5128333;27;20058;-32
2022/05/21 06:49:55;;;;;;;0.10;0.10;;;;;;;23.36;48.85;101737.50;5127551;28;21381;-31
2022/05/21 06:52:22;;;;;;;0.08;0.08;;;;;;;23.37;48.95;101738.31;5127011;27;20656;-32
2022/05/21 06:54:48;;;;;;;0.10;0.10;;;;;;;23.37;48.87;101741.94;5128906;27;20043;-32
2022/05/21 06:57:14;;;;;;;0.10;0.10;;;;;;;23.36;48.79;101743.06;5128200;27;20039;-31
2022/05/21 06:59:40;;;;;;;0.08;0.08;;;;;;;23.37;48.84;101744.72;5128204;27;20262;-31
2022/05/21 07:02:06;;;;;;;0.10;0.10;;;;;;;23.36;48.79;101745.84;5123749;28;20039;-33
2022/05/21 07:07:32;;;;;;;0.10;0.10;;;;;;;23.36;48.81;101751.41;5126661;28;20077;-31
2022/05/21 07:10:00;;;;;;;0.10;0.10;;;;;;;23.36;48.94;101754.19;5126295;27;20072;-33
2022/05/21 07:12:26;;;;;;;0.05;0.05;;;;;;;23.36;48.83;101748.63;5126066;28;20082;-32
2022/05/21 07:14:51;;;;;;;0.10;0.10;;;;;;;23.36;48.78;101761.66;5128275;27;20134;-32
2022/05/21 07:17:17;;;;;;;0.00;0.00;;;;;;;23.36;48.88;101762.53;5128081;28;20039;-31
2022/05/21 07:19:43;;;;;;;0.10;0.10;;;;;;;23.36;48.87;101758.88;5125409;28;20047;-32
2022/05/21 07:22:09;;;;;;;0.10;0.10;;;;;;;23.36;48.82;101761.66;5128424;27;20039;-31
2022/05/21 07:24:40;;;;;;;0.10;0.10;;;;;;;23.36;48.82;101758.88;5130095;27;20106;-35
2022/05/21 07:27:06;;;;;;;0.10;0.10;;;;;;;23.36;48.78;101764.44;5129272;27;20125;-33
2022/05/21 07:29:31;;;;;;;0.10;0.10;;;;;;;23.36;48.86;101758.88;5126717;27;20047;-33
2022/05/21 07:31:57;;;;;;;0.00;0.00;;;;;;;23.35;48.73;101763.63;5128995;28;20366;-31
2022/05/21 07:34:23;;;;;;;0.10;0.10;;;;;;;23.35;48.95;101765.56;5127187;27;20062;-31
2022/05/21 07:36:48;;;;;;;0.10;0.10;;;;;;;23.35;48.81;101766.38;5127287;27;20047;-31
2022/05/21 07:39:14;;;;;;;0.10;0.10;;;;;;;23.35;48.80;101763.63;5128558;27;20050;-30
2022/05/21 07:41:41;;;;;;;0.20;0.20;;;;;;;23.36;48.86;101772.78;5130137;27;20130;-31
2022/05/21 07:44:07;;;;;;;0.10;0.10;;;;;;;23.33;48.80;101763.09;5124316;28;20130;-31
2022/05/21 07:46:33;;;;;;;0.10;0.10;;;;;;;23.34;48.80;101769.47;5127693;27;20074;-30
2022/05/21 07:48:58;;;;;;;0.10;0.10;;;;;;;23.33;48.59;101771.44;5126792;27;20051;-33
2022/05/21 07:51:24;;;;;;;0.10;0.10;;;;;;;23.34;48.79;101778.63;5126728;28;20039;-31
2022/05/21 07:53:50;;;;;;;0.10;0.10;;;;;;;23.33;48.78;101785.31;5127637;28;20040;-31
2022/05/21 07:56:16;;;;;;;0.05;0.05;;;;;;;23.35;48.82;101785.03;5128332;28;20040;-32
2022/05/21 07:58:43;;;;;;;0.10;0.10;;;;;;;23.34;48.81;101791.72;5124519;28;20135;-31
2022/05/21 08:01:10;;;;;;;0.10;0.10;;;;;;;23.33;48.79;101787.28;5129018;28;20047;-32
2022/05/21 08:03:43;;;;;;;0.10;0.10;;;;;;;23.34;48.73;101791.72;5127055;28;20047;-32
2022/05/21 08:06:09;;;;;;;0.10;0.10;;;;;;;23.33;48.76;101784.50;5122964;27;20049;-32
2022/05/21 08:08:35;;;;;;;0.10;0.10;;;;;;;23.33;48.88;101790.88;5125240;28;20039;-31
2022/05/21 08:11:00;;;;;;;0.10;0.10;;;;;;;23.33;48.87;101790.88;5125747;28;20091;-33
2022/05/21 08:13:26;;;;;;;0.10;0.10;;;;;;;23.34;48.84;101791.72;5128672;27;20095;-31
2022/05/21 08:15:52;;;;;;;0.10;0.10;;;;;;;23.33;48.83;101799.22;5128132;27;20055;-31
2022/05/21 08:18:18;;;;;;;0.10;0.10;;;;;;;23.33;48.72;101790.06;5123883;28;20389;-32
2022/05/21 08:20:43;;;;;;;0.10;0.10;;;;;;;23.32;48.71;101800.34;5127713;27;20054;-32
2022/05/21 08:28:45;;;;;;;0.15;0.15;;;;;;;23.33;48.78;101804.78;5129514;28;20147;-31
2022/05/21 08:31:11;;;;;;;0.10;0.10;;;;;;;23.31;48.99;101809.78;5131655;27;20129;-32
2022/05/21 08:33:37;;;;;;;0.10;0.10;;;;;;;23.32;48.79;101808.69;5132089;27;20500;-34
2022/05/21 08:36:03;;;;;;;0.10;0.10;;;;;;;23.32;48.73;101816.19;5131704;28;20087;-31
2022/05/21 08:38:29;;;;;;;0.10;0.10;;;;;;;23.33;48.71;101809.50;5130227;28;20130;-32
2022/05/21 08:41:06;;;;;;;0.10;0.10;;;;;;;23.33;48.75;101807.56;5128657;28;20043;-31
2022/05/21 08:47:11;;;;;;;0.10;0.10;;;;;;;23.32;48.65;101805.91;5162043;27;20222;-30
2022/05/21 08:50:00;;;;;;;0.10;0.10;;;;;;;23.31;48.83;101812.56;5132263;27;20039;-29
2022/05/21 08:52:54;;;;;;;0.10;0.10;;;;;;;23.31;48.80;101806.16;5139958;27;20740;-30
2022/05/21 08:55:24;;;;;;;0.10;0.10;;;;;;;23.31;48.67;101814.50;5136125;27;20070;-30
2022/05/21 08:57:56;;;;;;;0.10;0.10;;;;;;;23.31;48.76;101820.06;5153708;27;20212;-29
2022/05/21 09:00:26;;;;;;;0.10;0.10;;;;;;;23.31;48.71;101820.06;5150316;27;20569;-30
2022/05/21 09:02:54;;;;;;;0.10;0.10;;;;;;;23.31;48.77;101807.00;5150601;27;20402;-29
2022/05/21 09:05:21;;;;;;;0.10;0.10;;;;;;;23.31;48.76;101814.50;5152484;27;20070;-30
2022/05/21 09:10:53;;;;;;;0.10;0.10;;;;;;;23.29;48.75;101807.31;5161103;27;20125;-30
2022/05/21 09:13:32;;;;;;;0.10;0.10;;;;;;;23.31;48.86;101811.72;5149036;27;20480;-28
2022/05/21 09:18:43;;;;;;;0.10;0.10;;;;;;;23.29;48.85;101823.97;5129792;27;20099;-30
2022/05/21 09:21:16;;;;;;;0.10;0.10;;;;;;;23.30;48.72;101816.47;5147861;27;20431;-29
2022/05/21 09:23:58;;;;;;;0.10;0.10;;;;;;;23.30;48.80;101819.25;5147508;27;20127;-31
2022/05/21 09:26:27;;;;;;;0.20;0.20;;;;;;;23.29;48.68;101814.81;5147543;27;20477;-31
2022/05/21 09:29:12;;;;;;;0.10;0.10;;;;;;;23.29;48.73;101814.81;5144158;27;20100;-31
2022/05/21 09:31:37;;;;;;;0.10;0.10;;;;;;;23.29;48.89;101818.41;5129542;27;20505;-32
2022/05/21 09:34:30;;;;;;;0.10;0.10;;;;;;;23.28;48.71;101819.53;5150485;27;20095;-32
2022/05/21 09:36:57;;;;;;;0.10;0.10;;;;;;;23.28;48.70;101813.97;5148961;27;20069;-31
2022/05/21 09:39:39;;;;;;;0.10;0.10;;;;;;;23.28;48.76;101825.09;5147782;27;20081;-31
2022/05/21 09:42:09;;;;;;;0.10;0.10;;;;;;;23.29;48.71;101809.25;5132733;27;20412;-32
2022/05/21 09:47:23;;;;;;;0.10;0.10;;;;;;;23.29;48.73;101804.53;5109449;27;20093;-31
2022/05/21 09:50:09;;;;;;;0.10;0.10;;;;;;;23.28;48.71;101807.59;5111177;28;20109;-31
2022/05/21 09:52:35;;;;;;;0.10;0.10;;;;;;;23.28;48.77;101813.97;5126700;27;20043;-31
2022/05/21 09:55:03;;;;;;;0.10;0.10;;;;;;;23.28;48.74;101813.97;5104767;27;20118;-33
2022/05/21 09:57:31;;;;;;;0.00;0.00;;;;;;;23.29;48.62;101814.81;5125054;27;20089;-33
2022/05/21 10:00:23;;;;;;;0.10;0.10;;;;;;;23.29;48.70;101814.81;5107797;27;20425;-31
2022/05/21 10:02:52;;;;;;;0.20;0.20;;;;;;;23.28;48.62;101818.72;5111471;27;20126;-31
2022/05/21 10:05:23;;;;;;;0.10;0.10;;;;;;;23.28;48.69;101799.25;5131553;27;20489;-31
2022/05/21 10:10:59;;;;;;;0.10;0.10;;;;;;;23.27;48.90;101809.56;5113036;27;20518;-31
2022/05/21 10:13:26;;;;;;;0.08;0.08;;;;;;;23.28;48.76;101799.25;5130428;27;20450;-31
2022/05/21 10:15:58;;;;;;;0.10;0.10;;;;;;;23.28;48.65;101791.75;5107104;27;20057;-31
2022/05/21 10:21:19;;;;;;;0.10;0.10;;;;;;;23.29;48.76;101795.34;5177044;27;20136;-26
2022/05/21 10:23:50;;;;;;;0.17;0.17;;;;;;;23.27;48.71;101795.66;5166948;27;20500;-26
2022/05/21 10:26:30;;;;;;;0.10;0.10;;;;;;;23.27;48.68;101806.78;5167496;27;20130;-26
2022/05/21 10:32:19;;;;;;;0.10;0.10;;;;;;;23.27;48.75;101792.00;5180012;27;20205;-30
2022/05/21 10:35:24;;;;;;;0.10;0.10;;;;;;;23.26;48.59;101796.75;5139433;27;20162;-29
2022/05/21 10:38:30;;;;;;;0.10;0.10;;;;;;;23.27;48.52;101801.22;5137490;27;20073;-31
2022/05/21 10:41:35;;;;;;;0.05;0.05;;;;;;;23.26;48.72;101813.41;5152169;27;20069;-31
2022/05/21 10:44:26;;;;;;;0.10;0.10;;;;;;;23.27;48.70;101814.25;5128910;27;20146;-31
2022/05/21 10:47:03;;;;;;;0.10;0.10;;;;;;;23.27;48.58;101819.81;5150683;27;20077;-29
2022/05/21 10:52:28;;;;;;;0.10;0.10;;;;;;;23.26;48.53;101810.63;5166275;27;20198;-29
2022/05/21 10:55:03;;;;;;;0.10;0.10;;;;;;;23.26;48.81;101807.03;5153470;27;20070;-31
2022/05/21 10:58:08;;;;;;;0.10;0.10;;;;;;;23.27;48.69;101789.25;5131114;27;20548;-29
2022/05/21 11:00:59;;;;;;;0.10;0.10;;;;;;;23.26;48.73;101784.81;5121421;27;20512;-30
2022/05/21 11:04:04;;;;;;;0.05;0.05;;;;;;;23.27;48.52;101786.47;5132314;27;20126;-30
2022/05/21 11:06:42;;;;;;;0.10;0.10;;;;;;;23.26;48.72;101788.41;5132060;27;20079;-29
2022/05/21 11:09:14;;;;;;;0.08;0.08;;;;;;;23.26;48.56;101782.03;5145129;27;20078;-29
2022/05/21 11:12:02;;;;;;;0.10;0.10;;;;;;;23.25;48.73;101783.16;5146395;27;20077;-29
2022/05/21 11:14:38;;;;;;;0.10;0.10;;;;;;;23.27;48.52;101789.25;5150799;27;20077;-29
2022/05/21 11:17:35;;;;;;;0.10;0.10;;;;;;;23.26;48.75;101787.59;5146877;27;20082;-29
2022/05/21 11:20:11;;;;;;;0.10;0.10;;;;;;;23.26;48.80;101779.25;5130111;27;20086;-29
2022/05/21 11:22:44;;;;;;;0.10;0.10;;;;;;;23.26;48.53;101782.03;5146718;27;20183;-30
2022/05/21 11:25:13;;;;;;;0.10;0.10;;;;;;;23.25;48.67;101781.19;5129383;27;20469;-28
2022/05/21 11:27:49;;;;;;;0.10;0.10;;;;;;;23.26;48.50;101776.47;5146493;27;20138;-29
2022/05/21 11:30:20;;;;;;;0.10;0.10;;;;;;;23.26;48.71;101779.25;5145821;27;20105;-30
2022/05/21 11:38:40;;;;;;;0.10;0.10;;;;;;;23.24;48.62;101782.31;5130411;27;20081;-29
2022/05/21 11:41:25;;;;;;;0.10;0.10;;;;;;;23.24;48.69;101787.88;5143342;27;20477;-29
2022/05/21 11:46:38;;;;;;;0.10;0.10;;;;;;;23.25;48.71;101786.75;5165811;27;20217;-29
2022/05/21 11:55:21;;;;;;;0.10;0.10;;;;;;;23.25;48.63;101792.31;5159861;27;20203;-29
2022/05/21 11:58:05;;;;;;;0.10;0.10;;;;;;;23.25;48.63;101795.09;5155484;27;20047;-29
2022/05/21 12:05:50;;;;;;;0.10;0.10;;;;;;;23.25;48.62;101792.31;5178385;27;20125;-26
2022/05/21 12:11:09;;;;;;;0.10;0.10;;;;;;;23.25;48.64;101794.25;5178544;27;20140;-30
2022/05/21 12:16:35;;;;;;;0.10;0.10;;;;;;;23.25;48.70;101788.72;5180697;27;21356;-30
2022/05/21 12:19:03;;;;;;;0.10;0.10;;;;;;;23.26;48.59;101788.41;5140251;27;20137;-29
2022/05/21 12:24:27;;;;;;;0.10;0.10;;;;;;;23.25;48.60;101781.19;5165969;27;20201;-30
2022/05/21 12:27:02;;;;;;;0.43;0.13;;;;;;;23.24;48.50;101776.75;5151742;27;20046;-30
2022/05/21 12:29:31;;;;;;;0.10;0.10;;;;;;;23.26;48.65;101773.69;5145601;27;20141;-29
2022/05/21 12:31:59;;;;;;;0.10;0.10;;;;;;;23.26;48.71;101770.91;5131694;27;20750;-30
2022/05/21 12:37:24;;;;;;;0.10;0.10;;;;;;;23.24;48.61;101771.22;5179472;27;20197;-29
2022/05/21 12:40:16;;;;;;;0.10;0.10;;;;;;;23.24;48.55;101754.53;5157144;27;20073;-32
2022/05/21 12:42:52;;;;;;;0.10;0.10;;;;;;;23.24;48.65;101751.75;5123237;27;20078;-30
2022/05/21 12:45:34;;;;;;;0.10;0.10;;;;;;;23.22;48.66;101765.09;5159360;27;20062;-30
2022/05/21 12:48:11;;;;;;;0.10;0.10;;;;;;;23.24;48.58;101762.88;5148814;27;21932;-30
2022/05/21 12:50:46;;;;;;;0.00;0.00;;;;;;;23.25;48.62;101760.91;5153852;27;20765;-30
2022/05/21 12:53:17;;;;;;;0.10;0.10;;;;;;;23.24;48.59;101762.03;5155189;27;20078;-29
2022/05/21 12:55:42;;;;;;;0.00;0.00;;;;;;;23.24;48.67;101757.31;5156527;27;20493;-30